sensor_id;sensor_type;location;lat;lon;timestamp;P1;durP1;ratioP1;P2;durP2;ratioP2
73902;SDS011;62238;48.722;9.270;2022-09-09T00:00:17;4.43;;;1.13;;
73902;SDS011;62238;48.722;9.270;2022-09-09T00:02:46;2.17;;;1.02;;
73902;SDS011;62238;48.722;9.270;2022-09-09T00:05:22;2.88;;;0.90;;
73902;SDS011;62238;48.722;9.270;2022-09-09T00:08:01;3.65;;;1.10;;
73902;SDS011;62238;48.722;9.270;2022-09-09T00:10:30;2.88;;;0.90;;
73902;SDS011;62238;48.722;9.270;2022-09-09T00:18:51;2.58;;;0.90;;
73902;SDS011;62238;48.722;9.270;2022-09-09T00:21:20;4.15;;;1.30;;
73902;SDS011;62238;48.722;9.270;2022-09-09T00:23:53;3.50;;;1.00;;
73902;SDS011;62238;48.722;9.270;2022-09-09T00:26:36;4.27;;;1.07;;
73902;SDS011;62238;48.722;9.270;2022-09-09T00:29:05;3.17;;;0.90;;
73902;SDS011;62238;48.722;9.270;2022-09-09T00:31:39;2.58;;;0.90;;
73902;SDS011;62238;48.722;9.270;2022-09-09T00:34:08;2.90;;;1.00;;
73902;SDS011;62238;48.722;9.270;2022-09-09T00:36:39;4.43;;;0.90;;
73902;SDS011;62238;48.722;9.270;2022-09-09T00:39:05;3.45;;;1.02;;
73902;SDS011;62238;48.722;9.270;2022-09-09T00:41:46;5.97;;;1.20;;
73902;SDS011;62238;48.722;9.270;2022-09-09T00:44:25;3.90;;;1.10;;
73902;SDS011;62238;48.722;9.270;2022-09-09T00:57:51;3.83;;;1.10;;
73902;SDS011;62238;48.722;9.270;2022-09-09T01:00:36;2.30;;;0.90;;
73902;SDS011;62238;48.722;9.270;2022-09-09T01:03:10;4.60;;;1.17;;
73902;SDS011;62238;48.722;9.270;2022-09-09T01:06:00;3.05;;;1.10;;
73902;SDS011;62238;48.722;9.270;2022-09-09T01:11:22;3.60;;;1.10;;
73902;SDS011;62238;48.722;9.270;2022-09-09T01:13:53;1.85;;;0.70;;
73902;SDS011;62238;48.722;9.270;2022-09-09T01:16:23;3.97;;;0.90;;
73902;SDS011;62238;48.722;9.270;2022-09-09T01:18:49;3.60;;;1.10;;
73902;SDS011;62238;48.722;9.270;2022-09-09T01:26:37;4.43;;;1.05;;
73902;SDS011;62238;48.722;9.270;2022-09-09T01:29:04;3.07;;;1.00;;
73902;SDS011;62238;48.722;9.270;2022-09-09T01:31:37;3.63;;;1.00;;
73902;SDS011;62238;48.722;9.270;2022-09-09T01:34:12;2.88;;;0.90;;
73902;SDS011;62238;48.722;9.270;2022-09-09T01:36:40;3.08;;;1.05;;
73902;SDS011;62238;48.722;9.270;2022-09-09T01:39:16;3.97;;;1.20;;
73902;SDS011;62238;48.722;9.270;2022-09-09T01:41:42;4.47;;;1.00;;
73902;SDS011;62238;48.722;9.270;2022-09-09T01:44:07;3.63;;;0.90;;
73902;SDS011;62238;48.722;9.270;2022-09-09T01:46:33;5.32;;;1.20;;
73902;SDS011;62238;48.722;9.270;2022-09-09T01:48:59;1.73;;;0.80;;
73902;SDS011;62238;48.722;9.270;2022-09-09T01:51:26;2.27;;;0.90;;
73902;SDS011;62238;48.722;9.270;2022-09-09T01:53:51;4.93;;;1.25;;
73902;SDS011;62238;48.722;9.270;2022-09-09T02:07:06;3.83;;;0.90;;
73902;SDS011;62238;48.722;9.270;2022-09-09T02:09:39;4.00;;;0.88;;
73902;SDS011;62238;48.722;9.270;2022-09-09T02:12:08;2.38;;;0.90;;
73902;SDS011;62238;48.722;9.270;2022-09-09T02:14:39;2.77;;;1.00;;
73902;SDS011;62238;48.722;9.270;2022-09-09T02:17:08;3.00;;;0.90;;
73902;SDS011;62238;48.722;9.270;2022-09-09T02:19:39;3.65;;;1.00;;
73902;SDS011;62238;48.722;9.270;2022-09-09T02:22:08;3.50;;;1.02;;
73902;SDS011;62238;48.722;9.270;2022-09-09T02:24:35;3.95;;;1.05;;
73902;SDS011;62238;48.722;9.270;2022-09-09T02:27:03;3.50;;;0.97;;
73902;SDS011;62238;48.722;9.270;2022-09-09T02:29:32;4.05;;;1.40;;
73902;SDS011;62238;48.722;9.270;2022-09-09T02:32:03;3.83;;;0.90;;
73902;SDS011;62238;48.722;9.270;2022-09-09T02:34:31;2.53;;;1.05;;
73902;SDS011;62238;48.722;9.270;2022-09-09T02:37:01;3.67;;;1.00;;
73902;SDS011;62238;48.722;9.270;2022-09-09T02:39:28;5.87;;;1.10;;
73902;SDS011;62238;48.722;9.270;2022-09-09T02:41:54;2.80;;;1.10;;
73902;SDS011;62238;48.722;9.270;2022-09-09T02:44:19;7.63;;;0.93;;
73902;SDS011;62238;48.722;9.270;2022-09-09T02:49:21;4.25;;;0.98;;
73902;SDS011;62238;48.722;9.270;2022-09-09T02:54:32;5.10;;;1.07;;
73902;SDS011;62238;48.722;9.270;2022-09-09T02:57:11;5.25;;;1.13;;
73902;SDS011;62238;48.722;9.270;2022-09-09T02:59:46;4.45;;;1.20;;
73902;SDS011;62238;48.722;9.270;2022-09-09T03:02:12;2.67;;;1.00;;
73902;SDS011;62238;48.722;9.270;2022-09-09T03:04:38;2.60;;;0.90;;
73902;SDS011;62238;48.722;9.270;2022-09-09T03:07:04;2.85;;;0.90;;
73902;SDS011;62238;48.722;9.270;2022-09-09T03:09:30;3.27;;;1.03;;
73902;SDS011;62238;48.722;9.270;2022-09-09T03:11:57;3.88;;;1.20;;
73902;SDS011;62238;48.722;9.270;2022-09-09T03:14:22;3.33;;;1.10;;
73902;SDS011;62238;48.722;9.270;2022-09-09T03:16:53;5.07;;;1.25;;
73902;SDS011;62238;48.722;9.270;2022-09-09T03:19:19;4.72;;;1.02;;
73902;SDS011;62238;48.722;9.270;2022-09-09T03:21:45;3.50;;;1.00;;
73902;SDS011;62238;48.722;9.270;2022-09-09T03:24:11;3.53;;;0.97;;
73902;SDS011;62238;48.722;9.270;2022-09-09T03:26:36;2.28;;;1.00;;
73902;SDS011;62238;48.722;9.270;2022-09-09T03:29:02;3.63;;;1.10;;
73902;SDS011;62238;48.722;9.270;2022-09-09T03:31:31;4.25;;;1.20;;
73902;SDS011;62238;48.722;9.270;2022-09-09T03:33:57;4.07;;;1.00;;
73902;SDS011;62238;48.722;9.270;2022-09-09T03:36:23;3.58;;;1.00;;
73902;SDS011;62238;48.722;9.270;2022-09-09T03:38:49;3.25;;;1.13;;
73902;SDS011;62238;48.722;9.270;2022-09-09T03:41:15;4.87;;;1.07;;
73902;SDS011;62238;48.722;9.270;2022-09-09T03:43:41;2.97;;;0.88;;
73902;SDS011;62238;48.722;9.270;2022-09-09T03:46:06;4.43;;;1.10;;
73902;SDS011;62238;48.722;9.270;2022-09-09T03:48:32;2.67;;;1.00;;
73902;SDS011;62238;48.722;9.270;2022-09-09T03:50:57;5.15;;;1.50;;
73902;SDS011;62238;48.722;9.270;2022-09-09T03:53:25;2.80;;;0.90;;
73902;SDS011;62238;48.722;9.270;2022-09-09T03:55:51;2.80;;;0.85;;
73902;SDS011;62238;48.722;9.270;2022-09-09T03:58:19;4.47;;;0.97;;
73902;SDS011;62238;48.722;9.270;2022-09-09T04:03:24;3.33;;;0.90;;
73902;SDS011;62238;48.722;9.270;2022-09-09T04:05:51;2.42;;;0.70;;
73902;SDS011;62238;48.722;9.270;2022-09-09T04:08:17;3.60;;;1.10;;
73902;SDS011;62238;48.722;9.270;2022-09-09T04:10:44;4.00;;;1.07;;
73902;SDS011;62238;48.722;9.270;2022-09-09T04:13:14;1.90;;;0.75;;
73902;SDS011;62238;48.722;9.270;2022-09-09T04:15:42;2.95;;;1.08;;
73902;SDS011;62238;48.722;9.270;2022-09-09T04:18:09;6.78;;;1.10;;
73902;SDS011;62238;48.722;9.270;2022-09-09T04:20:34;4.77;;;1.03;;
73902;SDS011;62238;48.722;9.270;2022-09-09T04:23:00;5.22;;;1.20;;
73902;SDS011;62238;48.722;9.270;2022-09-09T04:25:25;5.37;;;1.00;;
73902;SDS011;62238;48.722;9.270;2022-09-09T04:27:54;3.08;;;0.88;;
73902;SDS011;62238;48.722;9.270;2022-09-09T04:30:20;4.13;;;1.27;;
73902;SDS011;62238;48.722;9.270;2022-09-09T04:32:46;3.47;;;0.80;;
73902;SDS011;62238;48.722;9.270;2022-09-09T04:35:11;3.03;;;1.03;;
73902;SDS011;62238;48.722;9.270;2022-09-09T04:37:37;4.10;;;0.90;;
73902;SDS011;62238;48.722;9.270;2022-09-09T04:40:02;2.93;;;0.90;;
73902;SDS011;62238;48.722;9.270;2022-09-09T04:42:28;1.77;;;0.90;;
73902;SDS011;62238;48.722;9.270;2022-09-09T04:44:53;3.50;;;0.90;;
73902;SDS011;62238;48.722;9.270;2022-09-09T04:47:19;3.10;;;0.82;;
73902;SDS011;62238;48.722;9.270;2022-09-09T04:49:45;6.03;;;1.10;;
73902;SDS011;62238;48.722;9.270;2022-09-09T04:52:10;3.80;;;1.15;;
73902;SDS011;62238;48.722;9.270;2022-09-09T04:54:35;2.90;;;0.83;;
73902;SDS011;62238;48.722;9.270;2022-09-09T04:57:01;4.03;;;1.13;;
73902;SDS011;62238;48.722;9.270;2022-09-09T04:59:26;7.25;;;1.08;;
73902;SDS011;62238;48.722;9.270;2022-09-09T05:01:52;4.67;;;0.87;;
73902;SDS011;62238;48.722;9.270;2022-09-09T05:04:19;5.18;;;1.42;;
73902;SDS011;62238;48.722;9.270;2022-09-09T05:06:44;3.43;;;0.90;;
73902;SDS011;62238;48.722;9.270;2022-09-09T05:09:10;2.72;;;1.00;;
73902;SDS011;62238;48.722;9.270;2022-09-09T05:11:36;2.77;;;0.80;;
73902;SDS011;62238;48.722;9.270;2022-09-09T05:14:01;2.37;;;0.83;;
73902;SDS011;62238;48.722;9.270;2022-09-09T05:16:27;4.18;;;1.20;;
73902;SDS011;62238;48.722;9.270;2022-09-09T05:18:53;7.00;;;1.13;;
73902;SDS011;62238;48.722;9.270;2022-09-09T05:21:19;4.05;;;1.00;;
73902;SDS011;62238;48.722;9.270;2022-09-09T05:23:46;3.60;;;1.10;;
73902;SDS011;62238;48.722;9.270;2022-09-09T05:26:13;7.30;;;1.30;;
73902;SDS011;62238;48.722;9.270;2022-09-09T05:28:42;4.00;;;0.95;;
73902;SDS011;62238;48.722;9.270;2022-09-09T05:31:08;4.07;;;1.00;;
73902;SDS011;62238;48.722;9.270;2022-09-09T05:33:36;2.65;;;0.90;;
73902;SDS011;62238;48.722;9.270;2022-09-09T05:36:03;3.87;;;1.00;;
73902;SDS011;62238;48.722;9.270;2022-09-09T05:38:30;2.55;;;0.90;;
73902;SDS011;62238;48.722;9.270;2022-09-09T05:41:01;2.63;;;0.98;;
73902;SDS011;62238;48.722;9.270;2022-09-09T05:43:27;3.38;;;0.95;;
73902;SDS011;62238;48.722;9.270;2022-09-09T05:48:36;3.00;;;0.83;;
73902;SDS011;62238;48.722;9.270;2022-09-09T05:51:06;4.30;;;1.15;;
73902;SDS011;62238;48.722;9.270;2022-09-09T05:53:32;3.03;;;1.10;;
73902;SDS011;62238;48.722;9.270;2022-09-09T05:56:03;5.10;;;1.30;;
73902;SDS011;62238;48.722;9.270;2022-09-09T05:58:33;4.22;;;1.10;;
73902;SDS011;62238;48.722;9.270;2022-09-09T06:03:27;3.25;;;1.20;;
73902;SDS011;62238;48.722;9.270;2022-09-09T06:06:00;4.00;;;1.20;;
73902;SDS011;62238;48.722;9.270;2022-09-09T06:08:26;3.95;;;1.40;;
73902;SDS011;62238;48.722;9.270;2022-09-09T06:10:52;6.10;;;1.05;;
73902;SDS011;62238;48.722;9.270;2022-09-09T06:13:17;3.70;;;0.93;;
73902;SDS011;62238;48.722;9.270;2022-09-09T06:15:50;4.47;;;1.10;;
73902;SDS011;62238;48.722;9.270;2022-09-09T06:18:16;5.65;;;1.30;;
73902;SDS011;62238;48.722;9.270;2022-09-09T06:20:43;6.13;;;1.20;;
73902;SDS011;62238;48.722;9.270;2022-09-09T06:23:08;4.07;;;1.00;;
73902;SDS011;62238;48.722;9.270;2022-09-09T06:25:33;5.13;;;1.00;;
73902;SDS011;62238;48.722;9.270;2022-09-09T06:27:59;4.85;;;1.20;;
73902;SDS011;62238;48.722;9.270;2022-09-09T06:30:24;6.30;;;1.00;;
73902;SDS011;62238;48.722;9.270;2022-09-09T06:32:49;3.63;;;1.00;;
73902;SDS011;62238;48.722;9.270;2022-09-09T06:35:16;3.40;;;1.10;;
73902;SDS011;62238;48.722;9.270;2022-09-09T06:37:44;4.67;;;0.80;;
73902;SDS011;62238;48.722;9.270;2022-09-09T06:40:10;4.88;;;0.93;;
73902;SDS011;62238;48.722;9.270;2022-09-09T06:42:36;5.40;;;1.10;;
73902;SDS011;62238;48.722;9.270;2022-09-09T06:45:01;2.70;;;0.93;;
73902;SDS011;62238;48.722;9.270;2022-09-09T06:47:27;2.90;;;0.98;;
73902;SDS011;62238;48.722;9.270;2022-09-09T06:49:53;3.07;;;1.00;;
73902;SDS011;62238;48.722;9.270;2022-09-09T06:52:18;6.25;;;0.90;;
73902;SDS011;62238;48.722;9.270;2022-09-09T06:54:44;4.50;;;1.10;;
73902;SDS011;62238;48.722;9.270;2022-09-09T06:57:10;3.22;;;0.98;;
73902;SDS011;62238;48.722;9.270;2022-09-09T06:59:35;3.27;;;0.90;;
73902;SDS011;62238;48.722;9.270;2022-09-09T07:02:01;3.67;;;1.10;;
73902;SDS011;62238;48.722;9.270;2022-09-09T07:04:26;3.83;;;0.90;;
73902;SDS011;62238;48.722;9.270;2022-09-09T07:06:51;3.53;;;1.20;;
73902;SDS011;62238;48.722;9.270;2022-09-09T07:09:17;4.87;;;1.20;;
73902;SDS011;62238;48.722;9.270;2022-09-09T07:11:44;2.20;;;0.90;;
73902;SDS011;62238;48.722;9.270;2022-09-09T07:14:14;5.63;;;1.00;;
73902;SDS011;62238;48.722;9.270;2022-09-09T07:16:40;4.78;;;0.98;;
73902;SDS011;62238;48.722;9.270;2022-09-09T07:19:09;4.18;;;1.10;;
73902;SDS011;62238;48.722;9.270;2022-09-09T07:21:36;4.22;;;1.23;;
73902;SDS011;62238;48.722;9.270;2022-09-09T07:24:01;4.37;;;1.00;;
73902;SDS011;62238;48.722;9.270;2022-09-09T07:26:28;3.97;;;0.90;;
73902;SDS011;62238;48.722;9.270;2022-09-09T07:28:55;8.00;;;1.20;;
73902;SDS011;62238;48.722;9.270;2022-09-09T07:31:23;4.33;;;0.90;;
73902;SDS011;62238;48.722;9.270;2022-09-09T07:33:52;2.92;;;0.90;;
73902;SDS011;62238;48.722;9.270;2022-09-09T07:36:21;3.83;;;1.10;;
73902;SDS011;62238;48.722;9.270;2022-09-09T07:38:55;4.57;;;1.07;;
73902;SDS011;62238;48.722;9.270;2022-09-09T07:41:23;3.53;;;1.10;;
73902;SDS011;62238;48.722;9.270;2022-09-09T07:43:50;2.55;;;0.88;;
73902;SDS011;62238;48.722;9.270;2022-09-09T07:46:16;4.65;;;1.05;;
73902;SDS011;62238;48.722;9.270;2022-09-09T07:48:46;4.47;;;1.13;;
73902;SDS011;62238;48.722;9.270;2022-09-09T07:51:16;4.80;;;1.00;;
73902;SDS011;62238;48.722;9.270;2022-09-09T07:53:45;2.35;;;1.00;;
73902;SDS011;62238;48.722;9.270;2022-09-09T07:56:12;4.38;;;1.10;;
73902;SDS011;62238;48.722;9.270;2022-09-09T07:58:41;3.10;;;1.00;;
73902;SDS011;62238;48.722;9.270;2022-09-09T08:01:07;4.17;;;0.90;;
73902;SDS011;62238;48.722;9.270;2022-09-09T08:03:33;3.58;;;0.98;;
73902;SDS011;62238;48.722;9.270;2022-09-09T08:06:00;2.27;;;0.90;;
73902;SDS011;62238;48.722;9.270;2022-09-09T08:08:26;3.08;;;0.90;;
73902;SDS011;62238;48.722;9.270;2022-09-09T08:10:52;2.90;;;0.95;;
73902;SDS011;62238;48.722;9.270;2022-09-09T08:13:17;2.70;;;0.90;;
73902;SDS011;62238;48.722;9.270;2022-09-09T08:15:43;2.90;;;1.00;;
73902;SDS011;62238;48.722;9.270;2022-09-09T08:18:09;5.80;;;1.00;;
73902;SDS011;62238;48.722;9.270;2022-09-09T08:20:35;4.40;;;1.10;;
73902;SDS011;62238;48.722;9.270;2022-09-09T08:23:02;4.33;;;0.90;;
73902;SDS011;62238;48.722;9.270;2022-09-09T08:25:28;2.87;;;0.90;;
73902;SDS011;62238;48.722;9.270;2022-09-09T08:27:53;4.90;;;1.10;;
73902;SDS011;62238;48.722;9.270;2022-09-09T08:30:19;5.40;;;0.73;;
73902;SDS011;62238;48.722;9.270;2022-09-09T08:32:44;4.97;;;0.97;;
73902;SDS011;62238;48.722;9.270;2022-09-09T08:35:10;4.63;;;0.90;;
73902;SDS011;62238;48.722;9.270;2022-09-09T08:37:36;3.38;;;0.73;;
73902;SDS011;62238;48.722;9.270;2022-09-09T08:40:01;2.83;;;0.80;;
73902;SDS011;62238;48.722;9.270;2022-09-09T08:52:52;3.15;;;0.90;;
73902;SDS011;62238;48.722;9.270;2022-09-09T09:11:08;3.67;;;0.90;;
73902;SDS011;62238;48.722;9.270;2022-09-09T09:13:47;3.60;;;0.90;;
73902;SDS011;62238;48.722;9.270;2022-09-09T09:16:34;2.83;;;0.95;;
73902;SDS011;62238;48.722;9.270;2022-09-09T09:19:14;2.45;;;0.82;;
73902;SDS011;62238;48.722;9.270;2022-09-09T09:21:52;4.97;;;1.30;;
73902;SDS011;62238;48.722;9.270;2022-09-09T09:24:20;3.67;;;1.20;;
73902;SDS011;62238;48.722;9.270;2022-09-09T09:26:49;2.88;;;1.10;;
73902;SDS011;62238;48.722;9.270;2022-09-09T09:29:16;5.33;;;1.10;;
73902;SDS011;62238;48.722;9.270;2022-09-09T09:31:44;4.15;;;0.93;;
73902;SDS011;62238;48.722;9.270;2022-09-09T09:34:11;3.40;;;0.82;;
73902;SDS011;62238;48.722;9.270;2022-09-09T09:36:41;5.10;;;0.80;;
73902;SDS011;62238;48.722;9.270;2022-09-09T09:39:09;3.05;;;0.50;;
73902;SDS011;62238;48.722;9.270;2022-09-09T09:41:39;4.77;;;0.80;;
73902;SDS011;62238;48.722;9.270;2022-09-09T09:44:23;4.53;;;0.82;;
73902;SDS011;62238;48.722;9.270;2022-09-09T09:46:53;2.72;;;0.50;;
73902;SDS011;62238;48.722;9.270;2022-09-09T09:49:35;4.07;;;0.50;;
73902;SDS011;62238;48.722;9.270;2022-09-09T09:52:02;2.33;;;0.45;;
73902;SDS011;62238;48.722;9.270;2022-09-09T09:54:29;2.77;;;0.67;;
73902;SDS011;62238;48.722;9.270;2022-09-09T09:57:14;3.67;;;0.70;;
73902;SDS011;62238;48.722;9.270;2022-09-09T09:59:41;3.92;;;0.68;;
73902;SDS011;62238;48.722;9.270;2022-09-09T10:02:17;2.90;;;0.90;;
73902;SDS011;62238;48.722;9.270;2022-09-09T10:04:42;2.28;;;0.50;;
73902;SDS011;62238;48.722;9.270;2022-09-09T10:07:17;1.83;;;0.50;;
73902;SDS011;62238;48.722;9.270;2022-09-09T10:09:43;6.55;;;0.80;;
73902;SDS011;62238;48.722;9.270;2022-09-09T10:12:14;2.17;;;0.60;;
73902;SDS011;62238;48.722;9.270;2022-09-09T10:20:34;5.63;;;0.73;;
73902;SDS011;62238;48.722;9.270;2022-09-09T10:34:22;3.83;;;0.70;;
73902;SDS011;62238;48.722;9.270;2022-09-09T10:37:02;3.93;;;0.80;;
73902;SDS011;62238;48.722;9.270;2022-09-09T10:39:36;4.57;;;0.90;;
73902;SDS011;62238;48.722;9.270;2022-09-09T10:44:38;3.70;;;1.05;;
73902;SDS011;62238;48.722;9.270;2022-09-09T10:50:18;2.73;;;0.60;;
73902;SDS011;62238;48.722;9.270;2022-09-09T10:53:02;2.22;;;0.57;;
73902;SDS011;62238;48.722;9.270;2022-09-09T10:55:43;2.55;;;0.70;;
73902;SDS011;62238;48.722;9.270;2022-09-09T10:58:13;2.60;;;0.55;;
73902;SDS011;62238;48.722;9.270;2022-09-09T11:00:42;2.15;;;0.70;;
73902;SDS011;62238;48.722;9.270;2022-09-09T11:03:15;2.37;;;0.70;;
73902;SDS011;62238;48.722;9.270;2022-09-09T11:05:55;2.67;;;0.70;;
73902;SDS011;62238;48.722;9.270;2022-09-09T11:08:26;3.38;;;0.70;;
73902;SDS011;62238;48.722;9.270;2022-09-09T11:16:27;2.30;;;0.63;;
73902;SDS011;62238;48.722;9.270;2022-09-09T11:19:01;3.83;;;0.75;;
73902;SDS011;62238;48.722;9.270;2022-09-09T11:21:30;5.10;;;1.23;;
73902;SDS011;62238;48.722;9.270;2022-09-09T11:24:04;3.22;;;0.85;;
73902;SDS011;62238;48.722;9.270;2022-09-09T11:26:49;3.97;;;0.95;;
73902;SDS011;62238;48.722;9.270;2022-09-09T11:38:16;20.67;;;5.15;;
73902;SDS011;62238;48.722;9.270;2022-09-09T11:40:45;16.08;;;4.75;;
73902;SDS011;62238;48.722;9.270;2022-09-09T11:43:15;21.07;;;5.10;;
73902;SDS011;62238;48.722;9.270;2022-09-09T11:45:50;21.63;;;3.90;;
73902;SDS011;62238;48.722;9.270;2022-09-09T11:53:30;9.10;;;1.98;;
73902;SDS011;62238;48.722;9.270;2022-09-09T11:56:30;7.23;;;1.90;;
73902;SDS011;62238;48.722;9.270;2022-09-09T11:59:02;7.10;;;1.58;;
73902;SDS011;62238;48.722;9.270;2022-09-09T12:01:41;6.57;;;1.52;;
73902;SDS011;62238;48.722;9.270;2022-09-09T12:04:12;5.93;;;1.15;;
73902;SDS011;62238;48.722;9.270;2022-09-09T12:06:46;5.88;;;1.50;;
73902;SDS011;62238;48.722;9.270;2022-09-09T12:17:19;1.85;;;0.40;;
73902;SDS011;62238;48.722;9.270;2022-09-09T12:19:45;1.98;;;0.40;;
73902;SDS011;62238;48.722;9.270;2022-09-09T12:24:52;1.20;;;0.40;;
73902;SDS011;62238;48.722;9.270;2022-09-09T12:27:26;2.97;;;0.47;;
73902;SDS011;62238;48.722;9.270;2022-09-09T12:29:58;1.15;;;0.40;;
73902;SDS011;62238;48.722;9.270;2022-09-09T12:32:37;0.95;;;0.30;;
73902;SDS011;62238;48.722;9.270;2022-09-09T12:35:04;1.67;;;0.50;;
73902;SDS011;62238;48.722;9.270;2022-09-09T12:37:49;2.13;;;0.50;;
73902;SDS011;62238;48.722;9.270;2022-09-09T12:40:23;1.38;;;0.40;;
73902;SDS011;62238;48.722;9.270;2022-09-09T12:42:49;1.08;;;0.40;;
73902;SDS011;62238;48.722;9.270;2022-09-09T12:45:25;2.53;;;0.50;;
73902;SDS011;62238;48.722;9.270;2022-09-09T12:50:26;1.23;;;0.40;;
73902;SDS011;62238;48.722;9.270;2022-09-09T12:55:59;1.00;;;0.30;;
73902;SDS011;62238;48.722;9.270;2022-09-09T12:58:27;2.33;;;0.40;;
73902;SDS011;62238;48.722;9.270;2022-09-09T13:00:57;3.80;;;0.50;;
73902;SDS011;62238;48.722;9.270;2022-09-09T13:03:23;1.00;;;0.40;;
73902;SDS011;62238;48.722;9.270;2022-09-09T13:05:50;1.93;;;0.40;;
73902;SDS011;62238;48.722;9.270;2022-09-09T13:08:16;2.33;;;0.57;;
73902;SDS011;62238;48.722;9.270;2022-09-09T13:10:56;2.35;;;0.40;;
73902;SDS011;62238;48.722;9.270;2022-09-09T13:13:26;1.25;;;0.45;;
73902;SDS011;62238;48.722;9.270;2022-09-09T13:15:58;2.63;;;0.45;;
73902;SDS011;62238;48.722;9.270;2022-09-09T13:18:26;2.80;;;0.57;;
73902;SDS011;62238;48.722;9.270;2022-09-09T13:20:53;2.88;;;0.50;;
73902;SDS011;62238;48.722;9.270;2022-09-09T13:23:21;2.05;;;0.32;;
73902;SDS011;62238;48.722;9.270;2022-09-09T13:25:53;1.20;;;0.50;;
73902;SDS011;62238;48.722;9.270;2022-09-09T13:28:39;2.78;;;0.47;;
73902;SDS011;62238;48.722;9.270;2022-09-09T13:31:06;1.20;;;0.30;;
73902;SDS011;62238;48.722;9.270;2022-09-09T13:33:45;1.60;;;0.50;;
73902;SDS011;62238;48.722;9.270;2022-09-09T13:36:11;2.27;;;0.43;;
73902;SDS011;62238;48.722;9.270;2022-09-09T13:38:38;2.25;;;0.57;;
73902;SDS011;62238;48.722;9.270;2022-09-09T13:41:24;3.50;;;0.60;;
73902;SDS011;62238;48.722;9.270;2022-09-09T13:43:51;1.95;;;0.50;;
73902;SDS011;62238;48.722;9.270;2022-09-09T13:54:02;1.15;;;0.40;;
73902;SDS011;62238;48.722;9.270;2022-09-09T13:56:31;3.85;;;0.85;;
73902;SDS011;62238;48.722;9.270;2022-09-09T13:59:00;2.03;;;0.50;;
73902;SDS011;62238;48.722;9.270;2022-09-09T14:01:27;2.20;;;0.60;;
73902;SDS011;62238;48.722;9.270;2022-09-09T14:03:52;2.30;;;0.63;;
73902;SDS011;62238;48.722;9.270;2022-09-09T14:06:18;2.10;;;0.50;;
73902;SDS011;62238;48.722;9.270;2022-09-09T14:08:44;4.90;;;0.57;;
73902;SDS011;62238;48.722;9.270;2022-09-09T14:11:10;1.65;;;0.43;;
73902;SDS011;62238;48.722;9.270;2022-09-09T14:13:37;3.53;;;0.60;;
73902;SDS011;62238;48.722;9.270;2022-09-09T14:16:03;2.37;;;0.60;;
73902;SDS011;62238;48.722;9.270;2022-09-09T14:18:28;2.23;;;0.40;;
73902;SDS011;62238;48.722;9.270;2022-09-09T14:20:54;2.27;;;0.43;;
73902;SDS011;62238;48.722;9.270;2022-09-09T14:23:19;1.15;;;0.40;;
73902;SDS011;62238;48.722;9.270;2022-09-09T14:25:46;3.63;;;0.60;;
73902;SDS011;62238;48.722;9.270;2022-09-09T14:28:12;3.63;;;0.57;;
73902;SDS011;62238;48.722;9.270;2022-09-09T14:30:39;2.17;;;0.50;;
73902;SDS011;62238;48.722;9.270;2022-09-09T14:33:05;1.92;;;0.50;;
73902;SDS011;62238;48.722;9.270;2022-09-09T14:35:31;2.07;;;0.40;;
73902;SDS011;62238;48.722;9.270;2022-09-09T14:37:58;1.52;;;0.40;;
73902;SDS011;62238;48.722;9.270;2022-09-09T14:40:23;3.25;;;0.63;;
73902;SDS011;62238;48.722;9.270;2022-09-09T14:42:49;2.23;;;0.50;;
73902;SDS011;62238;48.722;9.270;2022-09-09T14:45:14;2.63;;;0.50;;
73902;SDS011;62238;48.722;9.270;2022-09-09T14:47:39;1.27;;;0.30;;
73902;SDS011;62238;48.722;9.270;2022-09-09T14:50:05;2.00;;;0.77;;
73902;SDS011;62238;48.722;9.270;2022-09-09T14:52:31;2.85;;;0.40;;
73902;SDS011;62238;48.722;9.270;2022-09-09T14:54:56;2.70;;;0.50;;
73902;SDS011;62238;48.722;9.270;2022-09-09T14:57:22;3.33;;;0.50;;
73902;SDS011;62238;48.722;9.270;2022-09-09T14:59:47;3.57;;;0.60;;
73902;SDS011;62238;48.722;9.270;2022-09-09T15:02:15;3.67;;;0.50;;
73902;SDS011;62238;48.722;9.270;2022-09-09T15:04:40;2.30;;;0.47;;
73902;SDS011;62238;48.722;9.270;2022-09-09T15:07:06;1.73;;;0.40;;
73902;SDS011;62238;48.722;9.270;2022-09-09T15:09:31;1.70;;;0.70;;
73902;SDS011;62238;48.722;9.270;2022-09-09T15:11:56;0.97;;;0.40;;
73902;SDS011;62238;48.722;9.270;2022-09-09T15:14:22;3.30;;;0.60;;
73902;SDS011;62238;48.722;9.270;2022-09-09T15:16:47;2.57;;;0.83;;
73902;SDS011;62238;48.722;9.270;2022-09-09T15:19:12;3.42;;;0.57;;
73902;SDS011;62238;48.722;9.270;2022-09-09T15:21:38;3.00;;;0.70;;
73902;SDS011;62238;48.722;9.270;2022-09-09T15:24:03;3.33;;;0.53;;
73902;SDS011;62238;48.722;9.270;2022-09-09T15:26:29;1.40;;;0.38;;
73902;SDS011;62238;48.722;9.270;2022-09-09T15:28:55;2.33;;;0.43;;
73902;SDS011;62238;48.722;9.270;2022-09-09T15:31:25;2.03;;;0.40;;
73902;SDS011;62238;48.722;9.270;2022-09-09T15:33:57;3.40;;;0.40;;
73902;SDS011;62238;48.722;9.270;2022-09-09T15:39:06;1.73;;;0.60;;
73902;SDS011;62238;48.722;9.270;2022-09-09T15:41:32;1.70;;;0.40;;
73902;SDS011;62238;48.722;9.270;2022-09-09T15:43:58;2.37;;;0.50;;
73902;SDS011;62238;48.722;9.270;2022-09-09T15:46:27;2.97;;;0.50;;
73902;SDS011;62238;48.722;9.270;2022-09-09T15:48:55;2.67;;;0.50;;
73902;SDS011;62238;48.722;9.270;2022-09-09T15:51:23;3.60;;;0.50;;
73902;SDS011;62238;48.722;9.270;2022-09-09T15:53:56;3.73;;;0.53;;
73902;SDS011;62238;48.722;9.270;2022-09-09T15:56:23;2.38;;;0.50;;
73902;SDS011;62238;48.722;9.270;2022-09-09T15:58:49;2.78;;;0.68;;
73902;SDS011;62238;48.722;9.270;2022-09-09T16:01:14;2.07;;;0.40;;
73902;SDS011;62238;48.722;9.270;2022-09-09T16:03:42;2.38;;;0.45;;
73902;SDS011;62238;48.722;9.270;2022-09-09T16:06:08;3.20;;;0.52;;
73902;SDS011;62238;48.722;9.270;2022-09-09T16:08:38;2.38;;;0.45;;
73902;SDS011;62238;48.722;9.270;2022-09-09T16:11:08;4.35;;;0.70;;
73902;SDS011;62238;48.722;9.270;2022-09-09T16:13:39;2.07;;;0.47;;
73902;SDS011;62238;48.722;9.270;2022-09-09T16:16:05;1.48;;;0.50;;
73902;SDS011;62238;48.722;9.270;2022-09-09T16:18:38;1.48;;;0.40;;
73902;SDS011;62238;48.722;9.270;2022-09-09T16:21:05;2.05;;;0.40;;
73902;SDS011;62238;48.722;9.270;2022-09-09T16:23:33;1.85;;;0.40;;
73902;SDS011;62238;48.722;9.270;2022-09-09T16:25:58;2.57;;;0.50;;
73902;SDS011;62238;48.722;9.270;2022-09-09T16:28:24;1.38;;;0.40;;
73902;SDS011;62238;48.722;9.270;2022-09-09T16:30:49;1.53;;;0.43;;
73902;SDS011;62238;48.722;9.270;2022-09-09T16:33:15;2.77;;;0.50;;
73902;SDS011;62238;48.722;9.270;2022-09-09T16:35:41;1.83;;;0.50;;
73902;SDS011;62238;48.722;9.270;2022-09-09T16:38:07;0.75;;;0.35;;
73902;SDS011;62238;48.722;9.270;2022-09-09T16:40:36;6.73;;;0.80;;
73902;SDS011;62238;48.722;9.270;2022-09-09T16:43:02;2.90;;;0.50;;
73902;SDS011;62238;48.722;9.270;2022-09-09T16:45:31;1.67;;;0.40;;
73902;SDS011;62238;48.722;9.270;2022-09-09T16:47:57;2.00;;;0.35;;
73902;SDS011;62238;48.722;9.270;2022-09-09T16:50:24;2.67;;;0.43;;
73902;SDS011;62238;48.722;9.270;2022-09-09T16:52:50;1.25;;;0.40;;
73902;SDS011;62238;48.722;9.270;2022-09-09T16:55:16;2.30;;;0.50;;
73902;SDS011;62238;48.722;9.270;2022-09-09T16:57:42;4.93;;;0.73;;
73902;SDS011;62238;48.722;9.270;2022-09-09T17:00:07;2.50;;;0.50;;
73902;SDS011;62238;48.722;9.270;2022-09-09T17:02:33;1.45;;;0.45;;
73902;SDS011;62238;48.722;9.270;2022-09-09T17:04:58;1.33;;;0.30;;
73902;SDS011;62238;48.722;9.270;2022-09-09T17:07:24;1.23;;;0.40;;
73902;SDS011;62238;48.722;9.270;2022-09-09T17:09:49;2.00;;;0.50;;
73902;SDS011;62238;48.722;9.270;2022-09-09T17:12:15;1.50;;;0.40;;
73902;SDS011;62238;48.722;9.270;2022-09-09T17:14:41;1.05;;;0.40;;
73902;SDS011;62238;48.722;9.270;2022-09-09T17:17:06;2.83;;;0.47;;
73902;SDS011;62238;48.722;9.270;2022-09-09T17:19:32;2.47;;;0.40;;